Time;durP1;ratioP1;P1;durP2;ratioP2;P2;SDS_P1;SDS_P2;PMS_P1;PMS_P2;Temp;Humidity;BMP_temperature;BMP_pressure;BME280_temperature;BME280_humidity;BME280_pressure;Samples;Min_cycle;Max_cycle;Signal;HPM_P1;HPM_P2
2022/12/24 00:01:17;;;;;;;0.30;0.30;;;9.20;99.90;;;;;;5021649;28;20509;-77
2022/12/24 00:03:46;;;;;;;0.30;0.30;;;9.40;99.90;;;;;;5032059;28;20475;-76
2022/12/24 00:06:22;;;;;;;0.27;0.27;;;9.40;99.90;;;;;;5037475;28;20452;-77
2022/12/24 00:08:50;;;;;;;0.30;0.30;;;9.50;99.90;;;;;;5044616;28;20752;-77
2022/12/24 00:11:20;;;;;;;0.60;0.60;;;9.50;99.90;;;;;;5047626;28;20433;-76
2022/12/24 00:13:48;;;;;;;0.50;0.50;;;9.50;99.90;;;;;;5041842;28;20434;-76
2022/12/24 00:16:15;;;;;;;0.47;0.30;;;9.50;99.90;;;;;;5035792;28;20432;-76
2022/12/24 00:18:41;;;;;;;0.30;0.20;;;9.60;99.90;;;;;;5046665;28;20431;-76
2022/12/24 00:21:13;;;;;;;0.50;0.40;;;9.60;99.90;;;;;;5043773;28;20436;-75
2022/12/24 00:23:40;;;;;;;0.30;0.27;;;9.60;99.90;;;;;;5049378;28;20552;-76
2022/12/24 00:26:07;;;;;;;0.52;0.30;;;9.50;99.90;;;;;;5042993;28;20431;-76
2022/12/24 00:28:34;;;;;;;4.88;0.40;;;9.30;99.90;;;;;;5047645;28;20437;-77
2022/12/24 00:31:27;;;;;;;1.00;0.50;;;9.10;99.90;;;;;;5049643;28;20516;-76
2022/12/24 00:33:54;;;;;;;0.40;0.30;;;9.00;99.90;;;;;;5030119;28;20430;-77
2022/12/24 00:36:21;;;;;;;2.35;0.57;;;9.00;99.90;;;;;;5044663;28;20804;-77
2022/12/24 00:38:49;;;;;;;0.93;0.60;;;9.00;99.90;;;;;;5023885;28;20456;-76
2022/12/24 00:41:24;;;;;;;0.20;0.20;;;9.00;99.90;;;;;;5048999;28;20429;-77
2022/12/24 00:43:56;;;;;;;0.45;0.35;;;9.10;99.90;;;;;;5044420;28;20427;-77
2022/12/24 00:46:25;;;;;;;2.70;0.50;;;9.00;99.90;;;;;;5058715;28;20467;-77
2022/12/24 00:48:52;;;;;;;0.57;0.30;;;9.00;99.90;;;;;;5050515;28;20464;-76
2022/12/24 00:51:21;;;;;;;1.10;0.43;;;9.10;99.90;;;;;;5027819;28;20436;-76
2022/12/24 00:53:48;;;;;;;0.30;0.30;;;9.10;99.90;;;;;;5055349;28;20494;-76
2022/12/24 00:56:15;;;;;;;1.00;0.30;;;9.10;99.90;;;;;;5038943;28;20466;-76
2022/12/24 00:58:44;;;;;;;1.20;0.20;;;9.00;99.90;;;;;;5057772;28;20435;-76
2022/12/24 01:01:12;;;;;;;0.70;0.30;;;9.00;99.90;;;;;;5050829;28;20436;-76
2022/12/24 01:03:44;;;;;;;4.40;0.40;;;9.00;99.90;;;;;;5041929;28;20434;-76
2022/12/24 01:06:14;;;;;;;1.40;0.30;;;9.10;99.90;;;;;;5042129;28;20506;-76
2022/12/24 01:08:41;;;;;;;0.35;0.35;;;9.00;99.90;;;;;;5036798;28;20462;-76
2022/12/24 01:11:11;;;;;;;4.20;0.50;;;9.00;99.90;;;;;;5040944;28;20515;-76
2022/12/24 01:13:38;;;;;;;0.45;0.45;;;8.90;99.90;;;;;;5040290;28;20441;-76
2022/12/24 01:16:14;;;;;;;2.40;0.30;;;8.90;99.90;;;;;;5053598;28;20427;-76
2022/12/24 01:18:41;;;;;;;3.15;0.63;;;8.80;99.90;;;;;;5046692;28;20508;-76
2022/12/24 01:21:11;;;;;;;1.40;0.50;;;8.80;99.90;;;;;;5041178;28;20517;-76
2022/12/24 01:23:38;;;;;;;0.35;0.35;;;8.80;99.90;;;;;;5045658;28;20483;-76
2022/12/24 01:26:05;;;;;;;0.60;0.60;;;8.80;99.90;;;;;;5049203;28;20531;-76
2022/12/24 01:28:32;;;;;;;0.50;0.30;;;8.70;99.90;;;;;;5049121;28;20461;-76
2022/12/24 01:30:59;;;;;;;0.60;0.30;;;8.70;99.90;;;;;;5039108;28;20439;-75
2022/12/24 01:33:29;;;;;;;0.25;0.22;;;8.80;99.90;;;;;;5044045;28;20462;-77
2022/12/24 01:36:01;;;;;;;1.45;0.40;;;8.80;99.90;;;;;;5046789;28;20437;-76
2022/12/24 01:38:28;;;;;;;0.80;0.80;;;8.80;99.90;;;;;;5046171;28;20420;-76
2022/12/24 01:43:40;;;;;;;1.20;0.40;;;8.60;99.90;;;;;;5038334;28;20430;-77
2022/12/24 01:46:25;;;;;;;0.40;0.33;;;8.50;99.90;;;;;;5037996;28;20456;-76
2022/12/24 01:48:54;;;;;;;0.30;0.30;;;8.40;99.90;;;;;;5047314;28;20433;-76
2022/12/24 01:51:44;;;;;;;0.45;0.45;;;8.30;99.90;;;;;;5044492;28;20442;-76
2022/12/24 01:54:16;;;;;;;1.45;0.22;;;8.20;99.90;;;;;;5046736;28;20489;-76
2022/12/24 01:56:48;;;;;;;2.20;0.25;;;8.10;99.90;;;;;;5051848;28;20437;-76
2022/12/24 01:59:17;;;;;;;0.50;0.50;;;8.10;99.90;;;;;;5061424;28;20429;-75
2022/12/24 02:01:49;;;;;;;0.20;0.20;;;8.00;99.90;;;;;;5045269;28;20475;-75
2022/12/24 02:04:51;;;;;;;0.40;0.30;;;8.00;99.90;;;;;;5053730;28;20419;-76
2022/12/24 02:07:18;;;;;;;0.20;0.20;;;7.90;99.90;;;;;;5010865;28;20512;-76
2022/12/24 02:09:46;;;;;;;0.30;0.30;;;7.80;99.90;;;;;;5044423;28;20477;-76
2022/12/24 02:12:13;;;;;;;0.30;0.20;;;7.70;99.90;;;;;;5041943;28;20429;-76
2022/12/24 02:14:45;;;;;;;3.40;0.80;;;7.80;99.90;;;;;;5046501;28;20460;-76
2022/12/24 02:17:33;;;;;;;0.40;0.40;;;7.80;99.90;;;;;;5042299;28;20440;-76
2022/12/24 02:20:51;;;;;;;8.40;0.60;;;7.80;99.90;;;;;;5044425;28;20425;-76
2022/12/24 02:23:35;;;;;;;1.40;0.43;;;7.80;99.90;;;;;;5015949;28;20437;-76
2022/12/24 02:26:32;;;;;;;0.13;0.13;;;7.90;99.90;;;;;;5034639;28;20433;-76
2022/12/24 02:29:31;;;;;;;0.30;0.20;;;8.00;99.90;;;;;;5037720;28;20437;-76
2022/12/24 02:32:04;;;;;;;1.30;0.40;;;8.00;99.90;;;;;;5005070;28;20429;-76
2022/12/24 02:34:38;;;;;;;4.47;0.75;;;8.10;99.90;;;;;;5045504;28;20499;-77
2022/12/24 02:37:11;;;;;;;0.47;0.47;;;8.20;99.90;;;;;;5034279;28;20435;-76
2022/12/24 02:40:06;;;;;;;0.30;0.30;;;8.30;99.90;;;;;;5041161;28;20835;-76
2022/12/24 02:42:45;;;;;;;4.10;0.33;;;8.40;99.90;;;;;;5046312;28;20934;-75
2022/12/24 02:45:19;;;;;;;4.80;0.50;;;8.60;99.90;;;;;;5052748;28;20452;-75
2022/12/24 02:47:46;;;;;;;3.30;1.00;;;8.70;99.90;;;;;;5032342;28;20519;-75
2022/12/24 02:50:17;;;;;;;0.90;0.60;;;8.70;99.90;;;;;;5042233;28;20431;-76
2022/12/24 02:52:45;;;;;;;0.40;0.25;;;8.80;99.90;;;;;;5050236;28;20899;-75
2022/12/24 02:55:20;;;;;;;0.22;0.22;;;8.80;99.90;;;;;;5035870;28;20460;-75
2022/12/24 02:58:09;;;;;;;0.10;0.10;;;8.90;99.90;;;;;;5030066;28;20524;-75
2022/12/24 03:01:16;;;;;;;0.40;0.40;;;8.90;99.90;;;;;;5041594;28;20436;-75
2022/12/24 03:03:55;;;;;;;0.37;0.37;;;8.90;99.90;;;;;;5049373;28;20800;-75
2022/12/24 03:06:50;;;;;;;0.50;0.40;;;9.00;99.90;;;;;;5035982;28;20440;-75
2022/12/24 03:09:31;;;;;;;0.45;0.45;;;9.10;99.90;;;;;;5047199;28;20489;-75
2022/12/24 03:12:06;;;;;;;0.20;0.20;;;9.20;99.90;;;;;;5052599;28;20433;-75
2022/12/24 03:14:34;;;;;;;0.55;0.47;;;9.20;99.90;;;;;;5052461;28;20441;-77
2022/12/24 03:17:02;;;;;;;2.90;0.30;;;9.10;99.90;;;;;;5050967;28;20484;-76
2022/12/24 03:19:30;;;;;;;0.50;0.20;;;9.00;99.90;;;;;;5059494;28;20435;-75
2022/12/24 03:21:59;;;;;;;0.60;0.20;;;8.90;99.90;;;;;;5046127;28;20433;-75
2022/12/24 03:24:26;;;;;;;0.20;0.20;;;8.80;99.90;;;;;;5030272;28;20440;-75
2022/12/24 03:26:54;;;;;;;0.32;0.32;;;8.80;99.90;;;;;;5057594;28;20816;-77
2022/12/24 03:29:22;;;;;;;1.02;0.80;;;8.70;99.90;;;;;;5050524;28;20433;-76
2022/12/24 03:31:52;;;;;;;0.50;0.50;;;8.60;99.90;;;;;;5052768;28;20519;-75
2022/12/24 03:34:19;;;;;;;0.22;0.22;;;8.60;99.90;;;;;;5047576;28;20914;-75
2022/12/24 03:36:46;;;;;;;0.60;0.20;;;8.50;99.90;;;;;;5049334;28;20440;-76
2022/12/24 03:39:19;;;;;;;1.55;0.65;;;8.50;99.90;;;;;;5048916;28;20893;-75
2022/12/24 03:41:47;;;;;;;0.20;0.20;;;8.50;99.90;;;;;;5059647;28;20432;-76
2022/12/24 03:44:14;;;;;;;0.20;0.20;;;8.50;99.90;;;;;;5053631;28;20859;-75
2022/12/24 03:46:41;;;;;;;0.55;0.52;;;8.40;99.90;;;;;;5052733;28;20425;-75
2022/12/24 03:49:07;;;;;;;0.20;0.20;;;8.50;99.90;;;;;;5032019;28;20486;-76
2022/12/24 03:51:37;;;;;;;0.90;0.43;;;8.50;99.90;;;;;;5047642;28;20437;-76
2022/12/24 03:54:03;;;;;;;0.60;0.57;;;8.50;99.90;;;;;;5054327;28;20532;-76
2022/12/24 03:56:37;;;;;;;0.90;0.30;;;8.60;99.90;;;;;;5047146;28;21243;-76
2022/12/24 03:59:04;;;;;;;2.42;0.30;;;8.70;99.90;;;;;;5046859;28;20425;-76
2022/12/24 04:01:31;;;;;;;0.20;0.20;;;8.70;99.90;;;;;;5051756;28;20424;-76
2022/12/24 04:03:58;;;;;;;0.43;0.43;;;8.80;99.90;;;;;;5044978;28;20462;-76
2022/12/24 04:06:25;;;;;;;4.70;0.55;;;8.70;99.90;;;;;;5044851;28;20460;-75
2022/12/24 04:08:51;;;;;;;1.10;0.60;;;8.70;99.90;;;;;;5040743;28;20435;-75
2022/12/24 04:11:18;;;;;;;0.75;0.38;;;8.50;99.90;;;;;;5032825;28;20441;-75
2022/12/24 04:13:45;;;;;;;0.90;0.50;;;8.40;99.90;;;;;;5050300;28;20464;-76
2022/12/24 04:16:14;;;;;;;0.40;0.40;;;8.40;99.90;;;;;;5060202;28;20444;-75
2022/12/24 04:18:44;;;;;;;2.00;0.80;;;8.30;99.90;;;;;;5046037;28;20431;-76
2022/12/24 04:21:15;;;;;;;0.10;0.10;;;8.30;99.90;;;;;;5031527;28;20504;-76
2022/12/24 04:23:42;;;;;;;0.60;0.30;;;8.30;99.90;;;;;;5043899;28;20437;-76
2022/12/24 04:26:11;;;;;;;3.33;0.73;;;8.40;99.90;;;;;;5045378;28;20469;-76
2022/12/24 04:28:40;;;;;;;0.20;0.20;;;8.40;99.90;;;;;;5046760;28;20429;-75
2022/12/24 04:31:13;;;;;;;0.80;0.13;;;8.40;99.90;;;;;;5053093;28;20425;-75
2022/12/24 04:33:41;;;;;;;0.30;0.30;;;8.40;99.90;;;;;;5050427;28;20428;-74
2022/12/24 04:36:15;;;;;;;2.27;0.30;;;8.40;99.90;;;;;;5042221;28;20437;-75
2022/12/24 04:38:42;;;;;;;0.25;0.22;;;8.40;99.90;;;;;;5051098;28;20492;-74
2022/12/24 04:41:15;;;;;;;0.28;0.28;;;8.40;99.90;;;;;;5047009;28;20431;-74
2022/12/24 04:43:50;;;;;;;0.80;0.80;;;8.30;99.90;;;;;;5049490;28;20430;-74
2022/12/24 04:46:23;;;;;;;0.30;0.20;;;8.30;99.90;;;;;;5053819;28;20452;-74
2022/12/24 04:48:51;;;;;;;0.40;0.40;;;8.30;99.90;;;;;;5040168;28;20435;-74
2022/12/24 04:51:19;;;;;;;0.38;0.38;;;8.20;99.90;;;;;;5044706;28;21166;-74
2022/12/24 04:53:45;;;;;;;1.98;0.40;;;8.10;99.90;;;;;;5047132;28;20522;-74
2022/12/24 04:56:21;;;;;;;0.70;0.30;;;8.00;99.90;;;;;;5045722;28;20437;-74
2022/12/24 04:58:49;;;;;;;4.70;0.40;;;7.90;99.90;;;;;;5053801;28;20795;-74
2022/12/24 05:01:22;;;;;;;0.25;0.25;;;7.90;99.90;;;;;;5061676;28;20430;-74
2022/12/24 05:03:50;;;;;;;1.45;0.35;;;7.80;99.90;;;;;;5043988;28;20925;-74
2022/12/24 05:06:20;;;;;;;1.17;0.45;;;7.70;99.90;;;;;;5050831;28;20461;-74
2022/12/24 05:08:47;;;;;;;0.95;0.25;;;7.70;99.90;;;;;;5026820;28;20644;-73
2022/12/24 05:11:15;;;;;;;4.20;0.30;;;7.80;99.90;;;;;;5049420;28;20529;-74
2022/12/24 05:13:43;;;;;;;1.33;0.22;;;7.70;99.90;;;;;;5048199;28;20424;-74
2022/12/24 05:16:15;;;;;;;0.77;0.47;;;7.70;99.90;;;;;;5059749;28;20859;-74
2022/12/24 05:18:42;;;;;;;1.10;0.60;;;7.70;99.90;;;;;;5045840;28;20431;-75
2022/12/24 05:21:13;;;;;;;2.00;0.70;;;7.70;99.90;;;;;;5044735;28;20433;-74
2022/12/24 05:26:34;;;;;;;2.97;0.27;;;7.60;99.90;;;;;;5054856;28;20436;-73
2022/12/24 05:29:03;;;;;;;0.30;0.30;;;7.60;99.90;;;;;;5041276;28;20915;-74
2022/12/24 05:31:32;;;;;;;0.20;0.20;;;7.70;99.90;;;;;;5038823;28;20429;-74
2022/12/24 05:34:00;;;;;;;2.85;0.30;;;7.90;99.90;;;;;;5052652;28;20435;-74
2022/12/24 05:36:27;;;;;;;0.68;0.30;;;8.10;99.90;;;;;;5044130;28;20475;-74
2022/12/24 05:38:54;;;;;;;0.30;0.30;;;8.30;99.90;;;;;;5056590;28;20973;-74
2022/12/24 05:41:21;;;;;;;2.60;0.35;;;8.40;99.90;;;;;;5060442;28;20431;-74
2022/12/24 05:43:47;;;;;;;0.70;0.60;;;8.50;99.90;;;;;;5039516;28;20794;-74
2022/12/24 05:46:17;;;;;;;0.80;0.25;;;8.60;99.90;;;;;;5039430;28;20947;-74
2022/12/24 05:48:45;;;;;;;0.88;0.60;;;8.60;99.90;;;;;;5047716;28;20429;-74
2022/12/24 05:51:13;;;;;;;0.50;0.40;;;8.50;99.90;;;;;;5043725;28;20841;-74
2022/12/24 05:53:40;;;;;;;1.42;0.30;;;8.50;99.90;;;;;;5047832;28;20433;-73
2022/12/24 05:56:10;;;;;;;0.30;0.30;;;8.30;99.90;;;;;;5048779;28;20558;-73
2022/12/24 05:58:38;;;;;;;0.25;0.25;;;8.20;99.90;;;;;;5054653;28;20484;-74
2022/12/24 06:01:06;;;;;;;0.80;0.50;;;8.20;99.90;;;;;;5056841;28;20443;-74
2022/12/24 06:03:34;;;;;;;1.70;0.75;;;8.10;99.90;;;;;;5050414;28;20508;-74
2022/12/24 06:06:04;;;;;;;1.60;0.60;;;8.10;99.90;;;;;;5040790;28;21252;-74
2022/12/24 06:08:34;;;;;;;0.30;0.30;;;8.00;99.90;;;;;;5045127;28;20484;-73
2022/12/24 06:11:04;;;;;;;0.20;0.20;;;8.00;99.90;;;;;;5041642;28;20435;-74
2022/12/24 06:13:31;;;;;;;0.63;0.23;;;7.90;99.90;;;;;;5040075;28;20428;-74
2022/12/24 06:16:01;;;;;;;5.10;0.47;;;7.90;99.90;;;;;;5032316;28;21149;-74
2022/12/24 06:18:28;;;;;;;0.52;0.32;;;7.80;99.90;;;;;;5044462;28;20444;-73
2022/12/24 06:20:59;;;;;;;0.20;0.20;;;7.80;99.90;;;;;;5038821;28;20466;-73
2022/12/24 06:23:31;;;;;;;0.50;0.50;;;7.70;99.90;;;;;;5019983;28;20425;-74
2022/12/24 06:25:59;;;;;;;0.30;0.30;;;7.70;99.90;;;;;;5056431;28;20442;-73
2022/12/24 06:28:27;;;;;;;1.63;0.95;;;7.80;99.90;;;;;;5052352;28;20448;-73
2022/12/24 06:30:54;;;;;;;1.60;0.40;;;7.90;99.90;;;;;;5059499;28;20435;-73
2022/12/24 06:33:28;;;;;;;0.35;0.30;;;7.90;99.90;;;;;;5036685;28;20443;-73
2022/12/24 06:35:55;;;;;;;1.95;0.35;;;8.00;99.90;;;;;;5047222;28;20432;-73
2022/12/24 06:38:22;;;;;;;1.00;0.32;;;8.10;99.90;;;;;;5046923;28;20456;-73
2022/12/24 06:40:48;;;;;;;0.93;0.45;;;8.20;99.90;;;;;;5030768;28;20431;-73
2022/12/24 06:43:16;;;;;;;8.70;0.52;;;8.20;99.90;;;;;;5053272;28;20434;-73
2022/12/24 06:45:47;;;;;;;0.50;0.20;;;8.30;99.90;;;;;;5036189;28;20943;-73
2022/12/24 06:48:14;;;;;;;0.50;0.50;;;8.30;99.90;;;;;;5056841;28;20429;-73
2022/12/24 06:50:41;;;;;;;0.60;0.50;;;8.30;99.90;;;;;;5049879;28;20429;-73
2022/12/24 06:53:08;;;;;;;0.70;0.70;;;8.20;99.90;;;;;;5051456;28;20493;-73
2022/12/24 06:55:35;;;;;;;1.07;0.37;;;8.20;99.90;;;;;;5048315;28;20787;-73
2022/12/24 06:58:02;;;;;;;0.25;0.22;;;8.20;99.90;;;;;;5051623;28;20433;-73
2022/12/24 07:00:29;;;;;;;0.60;0.40;;;8.20;99.90;;;;;;5048023;28;20435;-73
2022/12/24 07:02:56;;;;;;;2.15;0.30;;;8.20;99.90;;;;;;5047430;28;20919;-73
2022/12/24 07:05:22;;;;;;;0.55;0.55;;;8.30;99.90;;;;;;5052823;28;20476;-73
2022/12/24 07:07:49;;;;;;;0.80;0.30;;;8.40;99.90;;;;;;5039563;28;20429;-73
2022/12/24 07:10:17;;;;;;;0.90;0.30;;;8.40;99.90;;;;;;5060871;28;20431;-73
2022/12/24 07:12:44;;;;;;;1.90;0.75;;;8.50;99.90;;;;;;5052216;28;20868;-72
2022/12/24 07:15:11;;;;;;;2.50;0.57;;;8.60;99.90;;;;;;5069950;28;20435;-72
2022/12/24 07:17:38;;;;;;;3.60;0.57;;;8.60;99.90;;;;;;5054020;28;20890;-72
2022/12/24 07:20:07;;;;;;;0.28;0.28;;;8.60;99.90;;;;;;5051170;28;20855;-72
2022/12/24 07:22:34;;;;;;;0.32;0.32;;;8.70;99.90;;;;;;5056615;28;20484;-71
2022/12/24 07:25:01;;;;;;;0.40;0.38;;;8.70;99.90;;;;;;5049188;28;20867;-72
2022/12/24 07:27:37;;;;;;;2.22;0.88;;;8.70;99.90;;;;;;5061556;28;20532;-72
2022/12/24 07:30:04;;;;;;;2.03;0.50;;;8.70;99.90;;;;;;5039524;28;20468;-72
2022/12/24 07:32:31;;;;;;;2.47;0.50;;;8.70;99.90;;;;;;5048691;28;20492;-72
2022/12/24 07:34:58;;;;;;;1.88;0.43;;;8.70;99.90;;;;;;5048809;28;20431;-72
2022/12/24 07:37:25;;;;;;;0.40;0.40;;;8.60;99.90;;;;;;5046264;28;20467;-73
2022/12/24 07:39:52;;;;;;;0.50;0.50;;;8.60;99.90;;;;;;5039443;28;20885;-73
2022/12/24 07:42:19;;;;;;;1.10;0.30;;;8.70;99.90;;;;;;5043270;28;20826;-72
2022/12/24 07:44:46;;;;;;;1.88;0.90;;;8.70;99.90;;;;;;5041893;28;20433;-72
2022/12/24 07:47:14;;;;;;;3.50;0.50;;;8.80;99.90;;;;;;5036316;28;20511;-73
2022/12/24 07:49:40;;;;;;;1.17;0.50;;;8.80;99.90;;;;;;5042409;28;21513;-72
2022/12/24 07:52:07;;;;;;;1.50;0.30;;;8.80;99.90;;;;;;5038319;28;20469;-72
2022/12/24 07:54:34;;;;;;;1.45;0.55;;;8.80;99.90;;;;;;5024865;28;20437;-72
2022/12/24 07:57:01;;;;;;;0.40;0.40;;;8.80;99.90;;;;;;5037103;28;20436;-72
2022/12/24 07:59:27;;;;;;;1.23;0.38;;;8.80;99.90;;;;;;5033872;28;20465;-73
2022/12/24 08:01:54;;;;;;;0.70;0.65;;;8.80;99.90;;;;;;5046332;28;20506;-72
2022/12/24 08:04:24;;;;;;;0.70;0.60;;;8.80;99.90;;;;;;5042083;28;20431;-73
2022/12/24 08:06:51;;;;;;;10.40;0.90;;;8.80;99.90;;;;;;5030121;28;20435;-72
2022/12/24 08:09:18;;;;;;;0.30;0.30;;;8.80;99.90;;;;;;5041181;28;20429;-73
2022/12/24 08:11:44;;;;;;;0.50;0.50;;;8.80;99.90;;;;;;5038495;28;20479;-73
2022/12/24 08:14:18;;;;;;;1.70;0.50;;;8.80;99.90;;;;;;5048563;28;20441;-72
2022/12/24 08:16:44;;;;;;;3.50;0.70;;;8.80;99.90;;;;;;5039443;28;20433;-72
2022/12/24 08:19:11;;;;;;;0.80;0.45;;;8.80;99.90;;;;;;5061917;28;20431;-72
2022/12/24 08:21:38;;;;;;;0.90;0.68;;;8.70;99.90;;;;;;5041360;28;20436;-72
2022/12/24 08:24:05;;;;;;;0.65;0.65;;;8.70;99.90;;;;;;5047839;28;20428;-72
2022/12/24 08:26:32;;;;;;;7.10;0.70;;;8.60;99.90;;;;;;5047385;28;20520;-72
2022/12/24 08:28:59;;;;;;;1.85;0.60;;;8.60;99.90;;;;;;5043058;28;20431;-72
2022/12/24 08:31:25;;;;;;;1.10;0.60;;;8.60;99.90;;;;;;5039901;28;20439;-72
2022/12/24 08:33:52;;;;;;;4.78;1.08;;;8.60;99.90;;;;;;5048785;28;20439;-72
2022/12/24 08:36:19;;;;;;;0.40;0.40;;;8.60;99.90;;;;;;5051347;28;20784;-72
2022/12/24 08:38:46;;;;;;;1.50;0.40;;;8.60;99.90;;;;;;5034985;28;20443;-72
2022/12/24 08:41:12;;;;;;;3.45;0.50;;;8.70;99.90;;;;;;5040785;28;20983;-71
2022/12/24 08:43:47;;;;;;;0.53;0.53;;;8.70;99.90;;;;;;5037428;28;21221;-72
2022/12/24 08:46:14;;;;;;;4.70;0.95;;;8.70;99.90;;;;;;5038443;28;20440;-72
2022/12/24 08:48:43;;;;;;;1.40;0.70;;;8.80;99.90;;;;;;5040002;28;20941;-72
2022/12/24 08:51:16;;;;;;;1.60;0.50;;;8.90;99.90;;;;;;5041591;28;20514;-72
2022/12/24 08:53:42;;;;;;;0.90;0.50;;;8.90;99.90;;;;;;5036679;28;20435;-73
2022/12/24 08:56:12;;;;;;;0.40;0.40;;;9.00;99.90;;;;;;5036155;28;20437;-72
2022/12/24 08:58:43;;;;;;;2.30;0.90;;;9.00;99.90;;;;;;5049771;28;20430;-72
2022/12/24 09:01:14;;;;;;;0.55;0.52;;;8.90;99.90;;;;;;5041714;28;20433;-72
2022/12/24 09:03:41;;;;;;;0.20;0.20;;;8.90;99.90;;;;;;5044289;28;20429;-72
2022/12/24 09:06:09;;;;;;;4.28;0.57;;;9.00;99.90;;;;;;5048909;28;20425;-72
2022/12/24 09:08:36;;;;;;;0.60;0.40;;;9.00;99.90;;;;;;5044897;28;20506;-73
2022/12/24 09:11:09;;;;;;;0.73;0.40;;;9.00;99.90;;;;;;5055242;28;20469;-71
2022/12/24 09:13:36;;;;;;;7.40;1.00;;;9.10;99.90;;;;;;5033912;28;20436;-72
2022/12/24 09:16:04;;;;;;;6.00;0.68;;;9.20;99.90;;;;;;5045667;28;20429;-71
2022/12/24 09:18:31;;;;;;;3.70;0.60;;;9.30;99.90;;;;;;5018162;28;20536;-72
2022/12/24 09:21:06;;;;;;;1.80;0.50;;;9.30;99.90;;;;;;5045917;28;20513;-71
2022/12/24 09:23:38;;;;;;;1.30;0.57;;;9.30;99.90;;;;;;5033945;28;20425;-71
2022/12/24 09:26:08;;;;;;;0.60;0.40;;;9.30;99.90;;;;;;5035624;28;20504;-72
2022/12/24 09:28:38;;;;;;;5.80;1.08;;;9.30;99.90;;;;;;5036405;28;20433;-71
2022/12/24 09:31:05;;;;;;;3.72;0.57;;;9.40;99.90;;;;;;5034130;28;21380;-72
2022/12/24 09:33:35;;;;;;;0.45;0.45;;;9.50;99.90;;;;;;5039686;28;20827;-71
2022/12/24 09:36:03;;;;;;;1.43;0.53;;;9.70;99.90;;;;;;5039463;28;20451;-73
2022/12/24 09:38:34;;;;;;;0.30;0.30;;;9.70;99.90;;;;;;5028831;28;20545;-72
2022/12/24 09:41:11;;;;;;;0.60;0.30;;;9.90;99.90;;;;;;5031332;28;20462;-73
2022/12/24 09:43:38;;;;;;;2.20;0.60;;;10.10;99.90;;;;;;5049337;28;20739;-71
2022/12/24 09:46:17;;;;;;;0.40;0.30;;;10.30;99.90;;;;;;5037908;28;20430;-71
2022/12/24 09:48:51;;;;;;;6.30;1.15;;;10.40;99.90;;;;;;5036730;28;20433;-71
2022/12/24 09:51:42;;;;;;;4.18;0.80;;;10.60;99.90;;;;;;5036574;28;20432;-71
2022/12/24 09:54:32;;;;;;;0.70;0.50;;;10.60;99.90;;;;;;5046981;28;20947;-71
2022/12/24 09:57:06;;;;;;;0.35;0.35;;;10.80;99.90;;;;;;5038980;28;20439;-72
2022/12/24 09:59:45;;;;;;;1.10;0.50;;;10.90;99.90;;;;;;5036557;28;20434;-71
2022/12/24 10:02:17;;;;;;;1.52;0.63;;;11.00;99.90;;;;;;5035036;28;20432;-72
2022/12/24 10:04:46;;;;;;;0.40;0.40;;;11.00;99.90;;;;;;5033359;28;20945;-71
2022/12/24 10:07:28;;;;;;;1.80;0.80;;;11.10;99.90;;;;;;5033041;28;20484;-72
2022/12/24 10:10:16;;;;;;;2.10;1.13;;;11.30;99.90;;;;;;5046616;28;20459;-71
2022/12/24 10:13:02;;;;;;;1.20;0.50;;;11.40;99.90;;;;;;5036407;28;20426;-71
2022/12/24 10:15:48;;;;;;;0.35;0.35;;;11.60;99.90;;;;;;5054823;28;20505;-70
2022/12/24 10:18:25;;;;;;;5.80;0.70;;;12.20;99.90;;;;;;5037421;28;21137;-71
2022/12/24 10:21:10;;;;;;;5.90;0.60;;;12.60;99.90;;;;;;5047561;28;20433;-70
2022/12/24 10:23:47;;;;;;;0.60;0.40;;;12.80;99.90;;;;;;5048717;28;20432;-72
2022/12/24 10:26:27;;;;;;;0.30;0.30;;;13.10;99.90;;;;;;5041709;28;20434;-71
2022/12/24 10:29:07;;;;;;;0.63;0.63;;;13.30;99.90;;;;;;5045021;28;20767;-71
2022/12/24 10:31:43;;;;;;;0.60;0.43;;;13.60;99.90;;;;;;5046574;28;20524;-72
2022/12/24 10:34:18;;;;;;;1.40;0.60;;;14.30;99.90;;;;;;5029028;28;20439;-71
2022/12/24 10:36:45;;;;;;;3.20;0.52;;;14.60;99.90;;;;;;5040888;28;20542;-71
2022/12/24 10:39:22;;;;;;;6.75;0.65;;;14.40;99.90;;;;;;5058994;28;20431;-71
2022/12/24 10:41:56;;;;;;;1.20;0.90;;;14.10;99.90;;;;;;5040547;28;20435;-71
2022/12/24 10:44:27;;;;;;;0.80;0.43;;;14.10;99.90;;;;;;5036558;28;20795;-71
2022/12/24 10:46:58;;;;;;;1.00;0.43;;;13.90;99.90;;;;;;5054599;28;20431;-71
2022/12/24 10:49:43;;;;;;;5.97;0.70;;;13.70;99.90;;;;;;5049200;28;20915;-70
2022/12/24 10:52:18;;;;;;;3.50;1.50;;;13.60;99.90;;;;;;5042441;28;20433;-70
2022/12/24 10:55:06;;;;;;;1.20;0.63;;;13.20;99.90;;;;;;5041500;28;20796;-70
2022/12/24 10:57:33;;;;;;;1.80;0.73;;;13.10;99.90;;;;;;5037541;28;20425;-70
2022/12/24 11:00:00;;;;;;;0.50;0.50;;;13.10;99.90;;;;;;5045819;28;20776;-70
2022/12/24 11:02:36;;;;;;;0.93;0.85;;;13.10;99.90;;;;;;5042269;28;20512;-70
2022/12/24 11:05:25;;;;;;;2.10;0.60;;;13.20;99.90;;;;;;5046939;28;20435;-70
2022/12/24 11:08:22;;;;;;;1.35;0.98;;;13.20;99.90;;;;;;5030865;28;20433;-70
2022/12/24 11:11:06;;;;;;;1.60;0.70;;;13.20;99.90;;;;;;5041214;28;20445;-70
2022/12/24 11:13:38;;;;;;;4.20;0.70;;;13.10;99.90;;;;;;5046403;28;20432;-70
2022/12/24 11:16:13;;;;;;;1.70;0.80;;;12.90;99.90;;;;;;5048128;28;20432;-70
2022/12/24 11:18:47;;;;;;;6.00;0.93;;;12.80;99.90;;;;;;5047253;28;20440;-70
2022/12/24 11:21:29;;;;;;;2.08;0.68;;;12.70;99.90;;;;;;5043713;28;20470;-70
2022/12/24 11:24:08;;;;;;;1.98;0.40;;;12.60;99.90;;;;;;5041893;28;20433;-69
2022/12/24 11:26:35;;;;;;;2.83;0.70;;;12.40;99.90;;;;;;5041257;28;20425;-70
2022/12/24 11:29:07;;;;;;;1.90;0.87;;;12.20;99.90;;;;;;5055543;28;20452;-70
2022/12/24 11:31:36;;;;;;;6.90;0.98;;;12.10;99.90;;;;;;5055930;28;20483;-70
2022/12/24 11:34:24;;;;;;;0.50;0.38;;;12.00;99.90;;;;;;5050214;28;20523;-70
2022/12/24 11:36:53;;;;;;;1.50;0.50;;;11.80;99.90;;;;;;5028012;28;20456;-70
2022/12/24 11:39:23;;;;;;;1.90;0.90;;;11.60;99.90;;;;;;5032769;28;20441;-70
2022/12/24 11:41:52;;;;;;;2.60;0.65;;;11.30;99.90;;;;;;5046922;28;20447;-70
2022/12/24 11:44:27;;;;;;;3.72;0.57;;;11.30;99.90;;;;;;5049790;28;20429;-70
2022/12/24 11:46:57;;;;;;;0.60;0.60;;;11.40;99.90;;;;;;5039042;28;20439;-70
2022/12/24 11:49:30;;;;;;;3.00;0.90;;;11.60;99.90;;;;;;5048139;28;20426;-70
2022/12/24 11:52:08;;;;;;;1.60;0.70;;;11.80;99.90;;;;;;5043500;28;20441;-70
2022/12/24 11:55:16;;;;;;;0.65;0.28;;;12.20;99.90;;;;;;5045403;28;20458;-70
2022/12/24 11:57:51;;;;;;;2.40;0.52;;;12.90;99.90;;;;;;5043667;28;20431;-70
2022/12/24 12:00:18;;;;;;;1.10;1.00;;;13.70;99.90;;;;;;5049875;28;20957;-70
2022/12/24 12:02:48;;;;;;;2.90;1.13;;;13.80;99.90;;;;;;5051438;28;20996;-70
2022/12/24 12:05:24;;;;;;;1.95;0.80;;;13.70;99.90;;;;;;5059184;28;20427;-70
2022/12/24 12:07:55;;;;;;;4.90;0.90;;;13.40;99.90;;;;;;5043826;28;20468;-70
2022/12/24 12:10:30;;;;;;;2.40;0.60;;;13.20;99.90;;;;;;5047397;28;21149;-70
2022/12/24 12:13:08;;;;;;;3.20;0.40;;;13.00;99.90;;;;;;5052831;28;20480;-70
2022/12/24 12:15:50;;;;;;;2.95;0.43;;;13.00;99.90;;;;;;5035118;28;20508;-70
2022/12/24 12:18:33;;;;;;;0.70;0.32;;;13.40;99.90;;;;;;5053263;28;20434;-70
2022/12/24 12:21:05;;;;;;;1.43;0.47;;;13.70;99.90;;;;;;5043339;28;20431;-70
2022/12/24 12:23:43;;;;;;;2.45;1.10;;;13.70;99.90;;;;;;5044397;28;20425;-70
2022/12/24 12:26:23;;;;;;;3.80;0.82;;;13.60;99.90;;;;;;5042109;28;20446;-70
2022/12/24 12:29:17;;;;;;;1.10;0.52;;;13.40;99.90;;;;;;5051590;28;20791;-70
2022/12/24 12:31:48;;;;;;;0.43;0.35;;;13.20;99.90;;;;;;5032841;28;20538;-69
2022/12/24 12:34:35;;;;;;;0.90;0.68;;;13.00;99.90;;;;;;5037663;28;20431;-70
2022/12/24 12:37:39;;;;;;;0.97;0.70;;;12.80;99.90;;;;;;5005986;28;20855;-70
2022/12/24 12:40:14;;;;;;;0.47;0.47;;;12.90;99.90;;;;;;5022419;28;20435;-70
2022/12/24 12:42:56;;;;;;;5.35;1.10;;;13.10;99.90;;;;;;5016914;28;20478;-69
2022/12/24 12:45:48;;;;;;;0.77;0.77;;;13.50;99.90;;;;;;5027179;28;20425;-70
2022/12/24 12:48:35;;;;;;;3.00;0.60;;;13.70;99.90;;;;;;5024149;28;20453;-69
2022/12/24 12:51:11;;;;;;;0.47;0.40;;;13.90;99.90;;;;;;5014814;28;20440;-70
2022/12/24 12:54:22;;;;;;;2.00;0.35;;;13.80;99.90;;;;;;5024521;28;20442;-70
2022/12/24 12:56:55;;;;;;;2.10;0.57;;;13.50;99.90;;;;;;5018451;28;20617;-71
2022/12/24 12:59:34;;;;;;;0.50;0.50;;;13.10;99.90;;;;;;5031096;28;20453;-70
2022/12/24 13:02:31;;;;;;;3.30;0.70;;;13.00;99.90;;;;;;5024373;28;20427;-70
2022/12/24 13:05:14;;;;;;;4.10;0.60;;;13.00;99.90;;;;;;5021548;28;20564;-69
2022/12/24 13:07:52;;;;;;;4.10;0.82;;;13.00;99.90;;;;;;5019048;28;20514;-72
2022/12/24 13:10:33;;;;;;;3.88;0.88;;;13.00;99.90;;;;;;5026919;28;20513;-70
2022/12/24 13:13:26;;;;;;;3.10;0.40;;;13.20;99.90;;;;;;5022964;28;20462;-69
2022/12/24 13:16:10;;;;;;;1.55;0.65;;;13.50;99.90;;;;;;5039719;28;20433;-69
2022/12/24 13:18:52;;;;;;;2.55;0.73;;;13.60;99.90;;;;;;5024333;28;20486;-70
2022/12/24 13:21:25;;;;;;;2.60;0.60;;;13.50;99.90;;;;;;5049535;28;20441;-69
2022/12/24 13:24:20;;;;;;;1.92;0.60;;;13.30;99.90;;;;;;5047975;28;20884;-70
2022/12/24 13:27:16;;;;;;;3.58;0.50;;;13.00;99.90;;;;;;5032852;28;20805;-70
2022/12/24 13:29:45;;;;;;;0.70;0.60;;;12.60;99.90;;;;;;5037741;28;20429;-69